HARTSFIELD - JACKSON ATLANTA INTL

KATL (ATL)
Atlanta, Georgia
Towered

Vatsim Metar:
KATL 291752Z 11004KT 10SM BKN013 OVC021 11/06 A3024 RMK AO2 SLP243 T01110061 10111 20056 58009

No ATC Online

Traffic

Inbound:
Ident
Type
Name
ETA
Phase
WAT2632
B738
Steve Martin KMIA
Deplaning
DAL2134
A320
James Littler EGGC
Deplaning
DAL805
A320
Steve Kempf KTVC
Deplaning
SPMAR
B737
Marcel EPKK
18:04 Z
Descent
DAL564
A320
Daniel Briggs KATL
18:06 Z
Descent
DAL452
A320
Eric St. John KDTW
18:18 Z
Cruse
GTI325
B748
Jairo Almonte KJFK
18:22 Z
Cruse
DAL450
B738
Nash Francis KJFK
18:33 Z
Climb
DAL4862
A20N
Matthew Seid KATL
18:30 Z
Cruse
DAL549
B764
Josh Burr KMLU
Boarding
DAL2820
MD82
1448167 KDAL
Boarding
JZA8953
CRJ9
Ben White CYYZ
20:16 Z
Climb
DAL185
A310
Theodore Day EGKK
19:35 Z
Cruse
DLH447
B748
Victor EDDF
22:43 Z
Descent

Outbound:
Ident
Type
Name
Destination
Phase
DAL4134
A320
John Yensen KSEA
KMSP
Boarding
DAL2178
B738
John Lysiuk EICK
KEWR
Boarding
SWA1133
B738
paul allen KMDW
KDTW
Boarding
AAL1452
B78X
Matthew P KOMA
KBOS
Boarding
ACA758
A320
Jorge O KIAD
CYUL
Boarding
DAL1423
B737
Wil Artman 8A0
KORD
Boarding
DAL1398
MD88
Marc Zionts KIAH
KHOU
Boarding
ACA414
A20N
Claude Dugal CYUL
KMIA
Climb
FFT1012
A20N
1343097 KRNV
KMCO
Climb
DAL565
A320
Ja-Rad Grant TBPB
CYYZ
Climb
BAW236
CONC
Barry Cave EGKB
EGLL
Climb

IAPs